createdAt,value
2018-12-15T00:00:24.426Z,2.00
2018-12-15T00:02:55.134Z,2.00
2018-12-15T00:05:25.879Z,2.00
2018-12-15T00:07:54.768Z,2.00
2018-12-15T00:10:23.861Z,2.10
2018-12-15T00:12:52.819Z,2.20
2018-12-15T00:15:21.681Z,2.00
2018-12-15T00:17:50.460Z,2.10
2018-12-15T00:20:19.412Z,2.10
2018-12-15T00:22:48.085Z,2.20
2018-12-15T00:25:16.995Z,2.10
2018-12-15T00:27:45.724Z,2.00
2018-12-15T00:30:14.845Z,1.90
2018-12-15T00:32:43.579Z,1.90
2018-12-15T00:35:12.280Z,1.90
2018-12-15T00:37:41.025Z,1.90
2018-12-15T00:40:09.789Z,1.90
2018-12-15T00:42:38.658Z,2.00
2018-12-15T00:45:07.418Z,2.00
2018-12-15T00:47:36.122Z,2.00
2018-12-15T00:50:04.895Z,2.00
2018-12-15T00:52:33.571Z,1.90
2018-12-15T00:55:02.282Z,2.00
2018-12-15T00:57:31.005Z,2.00
2018-12-15T00:59:59.696Z,2.00
2018-12-15T01:02:28.412Z,2.00
2018-12-15T01:04:57.521Z,1.90
2018-12-15T01:07:26.324Z,1.90
2018-12-15T01:09:55.150Z,1.90
2018-12-15T01:12:24.102Z,1.90
2018-12-15T01:14:53.676Z,2.00
2018-12-15T01:17:22.480Z,2.00
2018-12-15T01:19:51.552Z,2.00
2018-12-15T01:22:20.226Z,1.90
2018-12-15T01:24:49.082Z,1.90
2018-12-15T01:27:17.754Z,1.90
2018-12-15T01:29:46.422Z,2.00
2018-12-15T01:32:15.108Z,2.00
2018-12-15T01:34:43.731Z,1.90
2018-12-15T01:37:12.414Z,1.90
2018-12-15T01:39:41.189Z,1.90
2018-12-15T01:42:10.017Z,1.90
2018-12-15T01:44:38.744Z,2.00
2018-12-15T01:47:07.474Z,1.90
2018-12-15T01:49:36.201Z,1.90
2018-12-15T01:52:04.906Z,1.90
2018-12-15T01:54:33.580Z,2.00
2018-12-15T01:57:02.277Z,2.10
2018-12-15T01:59:31.073Z,2.10
2018-12-15T02:01:59.828Z,2.00
2018-12-15T02:04:28.519Z,1.90
2018-12-15T02:06:57.253Z,2.00
2018-12-15T02:09:25.994Z,2.00
2018-12-15T02:11:54.770Z,2.00
2018-12-15T02:14:24.122Z,2.00
2018-12-15T02:16:52.819Z,2.00
2018-12-15T02:19:21.545Z,2.00
2018-12-15T02:21:50.277Z,2.00
2018-12-15T02:24:19.026Z,2.00
2018-12-15T02:26:47.805Z,2.00
2018-12-15T02:29:16.596Z,1.90
2018-12-15T02:31:45.405Z,1.90
2018-12-15T02:34:14.070Z,1.90
2018-12-15T02:36:42.817Z,1.90
2018-12-15T02:39:11.567Z,2.00
2018-12-15T02:41:47.163Z,1.90
2018-12-15T02:44:12.094Z,2.00
2018-12-15T02:46:40.817Z,1.90
2018-12-15T02:49:09.546Z,2.00
2018-12-15T02:51:38.253Z,1.90
2018-12-15T02:54:06.979Z,1.80
2018-12-15T02:56:35.619Z,1.90
2018-12-15T02:59:04.593Z,1.90
2018-12-15T03:01:33.334Z,1.90
2018-12-15T03:04:02.110Z,2.00
2018-12-15T03:06:30.912Z,2.10
2018-12-15T03:08:59.521Z,2.20
2018-12-15T03:11:28.312Z,2.20
2018-12-15T03:13:57.035Z,2.10
2018-12-15T03:16:25.815Z,2.10
2018-12-15T03:18:55.002Z,2.10
2018-12-15T03:21:24.230Z,2.00
2018-12-15T03:23:52.922Z,2.00
2018-12-15T03:26:21.714Z,2.00
2018-12-15T03:28:50.555Z,2.00
2018-12-15T03:31:19.338Z,2.00
2018-12-15T03:33:48.047Z,2.00
2018-12-15T03:36:17.177Z,2.20
2018-12-15T03:38:45.931Z,2.10
2018-12-15T03:41:14.857Z,2.00
2018-12-15T03:43:43.537Z,2.10
2018-12-15T03:46:12.322Z,2.10
2018-12-15T03:48:41.349Z,2.20
2018-12-15T03:51:10.112Z,2.40
2018-12-15T03:53:38.854Z,2.40
2018-12-15T03:56:07.690Z,2.40
2018-12-15T03:58:36.402Z,2.40
2018-12-15T04:01:05.442Z,2.40
2018-12-15T04:03:34.192Z,2.30
2018-12-15T04:06:02.909Z,2.20
2018-12-15T04:08:31.681Z,2.20
2018-12-15T04:11:01.306Z,2.10
2018-12-15T04:13:30.921Z,1.90
2018-12-15T04:15:59.803Z,2.00
2018-12-15T04:18:28.444Z,2.00
2018-12-15T04:20:57.104Z,2.10
2018-12-15T04:23:25.799Z,2.20
2018-12-15T04:25:55.341Z,2.20
2018-12-15T04:28:24.099Z,2.30
2018-12-15T04:30:52.820Z,2.30
2018-12-15T04:33:21.562Z,2.20
2018-12-15T04:35:50.691Z,2.20
2018-12-15T04:38:19.486Z,2.20
2018-12-15T04:40:48.199Z,2.10
2018-12-15T04:43:16.917Z,2.10
2018-12-15T04:45:45.641Z,2.10
2018-12-15T04:48:14.337Z,2.10
2018-12-15T04:50:43.062Z,2.10
2018-12-15T04:53:11.768Z,2.10
2018-12-15T04:55:40.454Z,2.20
2018-12-15T04:58:09.145Z,2.10
2018-12-15T05:00:37.821Z,2.00
2018-12-15T05:03:06.569Z,2.00
2018-12-15T05:05:35.246Z,2.00
2018-12-15T05:08:04.011Z,2.00
2018-12-15T05:10:32.706Z,2.00
2018-12-15T05:13:01.396Z,2.00
2018-12-15T05:15:30.196Z,1.90
2018-12-15T05:17:59.087Z,2.00
2018-12-15T05:20:27.830Z,2.00
2018-12-15T05:22:56.512Z,2.00
2018-12-15T05:25:26.196Z,2.00
2018-12-15T05:27:55.221Z,2.10
2018-12-15T05:30:23.979Z,2.10
2018-12-15T05:32:52.625Z,2.00
2018-12-15T05:35:21.361Z,2.10
2018-12-15T05:37:50.099Z,2.20
2018-12-15T05:40:18.924Z,2.10
2018-12-15T05:42:47.661Z,2.10
2018-12-15T05:45:16.529Z,2.00
2018-12-15T05:47:45.497Z,1.80
2018-12-15T05:50:14.245Z,1.80
2018-12-15T05:52:43.053Z,1.90
2018-12-15T05:55:11.945Z,2.00
2018-12-15T05:57:40.621Z,2.10
2018-12-15T06:00:09.385Z,2.00
2018-12-15T06:02:39.522Z,1.90
2018-12-15T06:05:09.033Z,1.90
2018-12-15T06:07:37.850Z,1.80
2018-12-15T06:10:06.608Z,1.80
2018-12-15T06:12:35.829Z,1.80
2018-12-15T06:15:05.454Z,1.90
2018-12-15T06:17:34.090Z,1.90
2018-12-15T06:20:03.028Z,2.00
2018-12-15T06:22:31.778Z,2.00
2018-12-15T06:25:00.448Z,2.00
2018-12-15T06:27:29.139Z,1.90
2018-12-15T06:29:57.837Z,1.80
2018-12-15T06:32:27.513Z,1.80
2018-12-15T06:34:56.262Z,1.90
2018-12-15T06:37:24.945Z,1.90
2018-12-15T06:39:53.604Z,1.80
2018-12-15T06:42:22.375Z,1.90
2018-12-15T06:44:51.082Z,1.90
2018-12-15T06:47:19.866Z,2.00
2018-12-15T06:49:48.622Z,2.00
2018-12-15T06:52:17.329Z,2.00
2018-12-15T06:54:46.110Z,2.00
2018-12-15T06:57:14.822Z,1.90
2018-12-15T06:59:43.602Z,1.80
2018-12-15T07:02:12.329Z,1.90
2018-12-15T07:04:41.185Z,1.90
2018-12-15T07:07:09.988Z,1.90
2018-12-15T07:09:38.725Z,1.90
2018-12-15T07:12:07.433Z,1.90
2018-12-15T07:14:36.058Z,1.90
2018-12-15T07:17:04.811Z,1.90
2018-12-15T07:19:33.929Z,1.80
2018-12-15T07:22:02.751Z,1.80
2018-12-15T07:24:31.568Z,1.90
2018-12-15T07:27:00.277Z,1.90
2018-12-15T07:29:28.970Z,1.80
2018-12-15T07:31:58.490Z,1.90
2018-12-15T07:34:27.249Z,1.90
2018-12-15T07:36:55.932Z,2.00
2018-12-15T07:39:24.753Z,2.00
2018-12-15T07:41:53.767Z,2.00
2018-12-15T07:44:22.501Z,2.00
2018-12-15T07:46:51.149Z,2.10
2018-12-15T07:49:19.975Z,2.10
2018-12-15T07:51:48.746Z,2.10
2018-12-15T07:54:17.540Z,2.10
2018-12-15T07:56:46.375Z,2.10
2018-12-15T07:59:15.138Z,2.10
2018-12-15T08:01:43.961Z,2.10
2018-12-15T08:04:12.930Z,2.10
2018-12-15T08:06:41.629Z,2.10
2018-12-15T08:09:10.408Z,2.10
2018-12-15T08:11:44.590Z,2.10
2018-12-15T08:14:13.793Z,1.90
2018-12-15T08:16:42.549Z,1.80
2018-12-15T08:19:12.184Z,1.70
2018-12-15T08:21:40.906Z,1.90
2018-12-15T08:24:09.654Z,1.90
2018-12-15T08:26:38.403Z,1.90
2018-12-15T08:29:08.233Z,1.90
2018-12-15T08:31:36.977Z,2.00
2018-12-15T08:34:06.467Z,1.90
2018-12-15T08:36:35.432Z,2.00
2018-12-15T08:39:07.042Z,2.00
2018-12-15T08:41:37.767Z,2.00
2018-12-15T08:44:06.568Z,2.00
2018-12-15T08:46:35.233Z,1.90
2018-12-15T08:49:04.747Z,2.00
2018-12-15T08:51:33.747Z,1.90
2018-12-15T08:54:02.511Z,1.90
2018-12-15T08:56:32.224Z,2.00
2018-12-15T08:59:01.049Z,1.90
2018-12-15T09:01:29.841Z,1.90
2018-12-15T09:03:58.616Z,2.00
2018-12-15T09:06:27.331Z,2.10
2018-12-15T09:08:56.071Z,1.90
2018-12-15T09:11:24.833Z,1.90
2018-12-15T09:13:53.592Z,1.90
2018-12-15T09:16:26.433Z,1.90
2018-12-15T09:18:53.022Z,2.00
2018-12-15T09:21:21.854Z,2.00
2018-12-15T09:23:50.658Z,1.90
2018-12-15T09:26:19.519Z,1.90
2018-12-15T09:28:48.240Z,1.80
2018-12-15T09:31:17.085Z,1.80
2018-12-15T09:33:46.871Z,1.80
2018-12-15T09:36:15.922Z,1.70
2018-12-15T09:38:44.986Z,1.60
2018-12-15T09:41:13.806Z,1.80
2018-12-15T09:43:42.681Z,1.90
2018-12-15T09:46:11.412Z,1.90
2018-12-15T09:48:40.131Z,2.00
2018-12-15T09:51:08.865Z,2.10
2018-12-15T09:53:37.991Z,2.10
2018-12-15T09:56:06.738Z,2.00
2018-12-15T09:58:35.494Z,2.10
2018-12-15T10:01:04.301Z,2.10
2018-12-15T10:03:33.509Z,2.00
2018-12-15T10:06:02.485Z,2.10
2018-12-15T10:08:32.294Z,2.20
2018-12-15T10:11:01.205Z,2.20
2018-12-15T10:18:27.293Z,2.20
2018-12-15T10:20:56.175Z,1.90
2018-12-15T10:23:25.019Z,1.90
2018-12-15T10:25:53.782Z,1.90
2018-12-15T10:28:22.601Z,2.00
2018-12-15T10:30:56.628Z,1.90
2018-12-15T10:33:25.449Z,1.90
2018-12-15T10:35:54.093Z,1.80
2018-12-15T10:38:22.782Z,1.90
2018-12-15T10:40:51.518Z,2.00
2018-12-15T10:43:20.260Z,2.00
2018-12-15T10:45:49.301Z,2.00
2018-12-15T10:48:17.997Z,1.90
2018-12-15T10:50:46.718Z,1.90
2018-12-15T10:53:16.514Z,1.80
2018-12-15T10:55:45.240Z,1.80
2018-12-15T10:58:13.876Z,1.80
2018-12-15T11:00:48.181Z,1.70
2018-12-15T11:03:16.975Z,1.60
2018-12-15T11:05:45.632Z,1.50
2018-12-15T11:08:14.694Z,1.30
2018-12-15T11:10:43.422Z,1.40
2018-12-15T11:13:12.184Z,1.30
2018-12-15T11:15:41.081Z,1.40
2018-12-15T11:18:09.852Z,1.30
2018-12-15T11:20:38.646Z,1.30
2018-12-15T11:23:07.426Z,1.30
2018-12-15T11:25:36.128Z,1.20
2018-12-15T11:28:04.901Z,1.20
2018-12-15T11:30:33.722Z,1.20
2018-12-15T11:33:02.475Z,1.10
2018-12-15T11:35:32.665Z,1.10
2018-12-15T11:38:02.452Z,1.00
2018-12-15T11:40:31.388Z,1.10
2018-12-15T11:43:00.069Z,1.10
2018-12-15T11:45:28.801Z,1.10
2018-12-15T11:47:57.561Z,1.10
2018-12-15T11:50:26.354Z,1.10
2018-12-15T11:52:55.105Z,1.10
2018-12-15T11:55:23.937Z,1.10
2018-12-15T11:57:52.581Z,1.10
2018-12-15T12:00:21.246Z,1.00
2018-12-15T12:02:50.071Z,0.90
2018-12-15T12:05:18.817Z,1.10
2018-12-15T12:07:47.906Z,1.30
2018-12-15T12:10:16.948Z,1.10
2018-12-15T12:12:45.696Z,1.10
2018-12-15T12:15:14.507Z,0.90
2018-12-15T12:17:43.662Z,0.90
2018-12-15T12:20:12.466Z,1.00
2018-12-15T12:22:41.229Z,1.00
2018-12-15T12:25:10.943Z,1.10
2018-12-15T12:27:41.530Z,1.20
2018-12-15T12:30:10.401Z,1.30
2018-12-15T12:32:39.082Z,1.40
2018-12-15T12:35:07.796Z,1.40
2018-12-15T12:37:36.726Z,1.30
2018-12-15T12:40:05.851Z,1.10
2018-12-15T12:42:34.718Z,0.90
2018-12-15T12:45:03.732Z,1.00
2018-12-15T12:47:32.568Z,1.10
2018-12-15T12:50:01.249Z,1.00
2018-12-15T12:52:31.922Z,1.10
2018-12-15T12:55:00.625Z,1.20
2018-12-15T12:57:29.250Z,1.00
2018-12-15T12:59:58.039Z,1.10
2018-12-15T13:02:26.961Z,1.10
2018-12-15T13:04:55.701Z,1.10
2018-12-15T13:07:24.649Z,1.20
2018-12-15T13:09:53.456Z,1.20
2018-12-15T13:12:22.284Z,1.20
2018-12-15T13:14:51.105Z,1.30
2018-12-15T13:17:19.908Z,1.30
2018-12-15T13:19:48.755Z,1.10
2018-12-15T13:22:17.671Z,1.10
2018-12-15T13:24:46.429Z,1.20
2018-12-15T13:27:15.192Z,1.20
2018-12-15T13:29:43.953Z,1.20
2018-12-15T13:32:13.921Z,1.10
2018-12-15T13:34:42.593Z,1.20
2018-12-15T13:37:11.468Z,1.30
2018-12-15T13:39:40.178Z,1.30
2018-12-15T13:42:09.000Z,1.40
2018-12-15T13:44:37.701Z,1.50
2018-12-15T13:47:06.713Z,1.60
2018-12-15T13:49:36.559Z,1.60
2018-12-15T13:52:05.389Z,1.60
2018-12-15T13:54:34.319Z,1.50
2018-12-15T13:57:03.509Z,1.50
2018-12-15T13:59:32.233Z,1.50
2018-12-15T14:02:01.241Z,1.60
2018-12-15T14:04:31.175Z,1.70
2018-12-15T14:07:00.165Z,1.60
2018-12-15T14:09:28.834Z,1.60
2018-12-15T14:11:57.590Z,1.50
2018-12-15T14:14:26.229Z,1.40
2018-12-15T14:16:54.981Z,1.40
2018-12-15T14:19:23.909Z,1.50
2018-12-15T14:21:52.696Z,1.30
2018-12-15T14:24:21.525Z,1.10
2018-12-15T14:26:50.576Z,1.20
2018-12-15T14:29:19.983Z,1.20
2018-12-15T14:31:48.646Z,1.30
2018-12-15T14:34:17.393Z,1.20
2018-12-15T14:36:46.128Z,1.20
2018-12-15T14:39:14.831Z,1.10
2018-12-15T14:41:43.579Z,1.00
2018-12-15T14:44:12.196Z,1.10
2018-12-15T14:46:40.941Z,1.20
2018-12-15T14:49:09.866Z,1.30
2018-12-15T14:51:38.499Z,1.20
2018-12-15T14:54:07.170Z,1.10
2018-12-15T14:56:35.943Z,1.10
2018-12-15T14:59:04.746Z,1.00
2018-12-15T15:01:33.563Z,1.00
2018-12-15T15:04:02.261Z,1.00
2018-12-15T15:06:31.073Z,1.00
2018-12-15T15:09:00.038Z,1.00
2018-12-15T15:11:29.026Z,0.90
2018-12-15T15:13:58.425Z,0.90
2018-12-15T15:16:27.221Z,0.90
2018-12-15T15:18:56.093Z,1.00
2018-12-15T15:21:24.882Z,1.00
2018-12-15T15:23:53.764Z,1.10
2018-12-15T15:26:22.477Z,1.20
2018-12-15T15:28:51.449Z,1.10
2018-12-15T15:31:20.266Z,1.10
2018-12-15T15:33:49.081Z,1.10
2018-12-15T15:36:18.125Z,1.00
2018-12-15T15:38:47.039Z,1.00
2018-12-15T15:41:16.741Z,1.10
2018-12-15T15:43:45.666Z,1.20
2018-12-15T15:46:14.698Z,1.30
2018-12-15T15:48:43.406Z,1.40
2018-12-15T15:51:12.373Z,1.40
2018-12-15T15:53:41.064Z,1.40
2018-12-15T15:56:09.949Z,1.30
2018-12-15T15:58:38.673Z,1.30
2018-12-15T16:01:07.437Z,1.30
2018-12-15T16:03:36.209Z,1.40
2018-12-15T16:06:05.104Z,1.40
2018-12-15T16:08:33.885Z,1.40
2018-12-15T16:11:02.609Z,1.40
2018-12-15T16:13:31.365Z,1.20
2018-12-15T16:16:01.041Z,1.10
2018-12-15T16:18:29.701Z,1.00
2018-12-15T16:20:58.465Z,1.00
2018-12-15T16:23:27.142Z,1.10
2018-12-15T16:25:55.883Z,1.00
2018-12-15T16:28:24.626Z,0.90
2018-12-15T16:30:53.351Z,1.00
2018-12-15T16:33:22.065Z,0.80
2018-12-15T16:35:50.886Z,0.70
2018-12-15T16:38:20.498Z,0.80
2018-12-15T16:40:50.769Z,0.80
2018-12-15T16:43:19.496Z,0.90
2018-12-15T16:45:48.237Z,0.80
2018-12-15T16:48:16.964Z,0.80
2018-12-15T16:50:49.947Z,0.80
2018-12-15T16:53:16.538Z,0.80
2018-12-15T16:55:45.222Z,0.80
2018-12-15T16:58:13.893Z,0.70
2018-12-15T17:00:42.644Z,0.80
2018-12-15T17:03:11.437Z,0.90
2018-12-15T17:05:40.132Z,0.70
2018-12-15T17:08:15.622Z,0.70
2018-12-15T17:10:44.435Z,0.70
2018-12-15T17:13:13.186Z,0.60
2018-12-15T17:15:41.981Z,0.70
2018-12-15T17:18:10.843Z,0.80
2018-12-15T17:20:39.522Z,0.80
2018-12-15T17:23:08.313Z,0.80
2018-12-15T17:25:37.969Z,0.70
2018-12-15T17:28:06.712Z,0.70
2018-12-15T17:30:35.486Z,0.80
2018-12-15T17:33:04.410Z,0.80
2018-12-15T17:35:33.186Z,0.60
2018-12-15T17:38:01.989Z,0.50
2018-12-15T17:40:31.585Z,0.60
2018-12-15T17:43:00.318Z,0.60
2018-12-15T17:45:29.096Z,0.70
2018-12-15T17:47:57.848Z,0.60
2018-12-15T17:50:27.493Z,0.40
2018-12-15T17:52:56.221Z,0.50
2018-12-15T17:55:26.017Z,0.50
2018-12-15T17:57:54.719Z,0.50
2018-12-15T18:00:23.486Z,0.60
2018-12-15T18:02:52.153Z,0.70
2018-12-15T18:05:21.056Z,0.70
2018-12-15T18:07:50.113Z,0.70
2018-12-15T18:10:18.870Z,0.80
2018-12-15T18:12:47.565Z,0.60
2018-12-15T18:15:16.344Z,0.50
2018-12-15T18:17:45.012Z,0.50
2018-12-15T18:20:13.785Z,0.40
2018-12-15T18:22:42.645Z,0.40
2018-12-15T18:25:11.429Z,0.50
2018-12-15T18:27:41.047Z,0.40
2018-12-15T18:30:11.159Z,0.40
2018-12-15T18:32:39.854Z,0.50
2018-12-15T18:35:08.561Z,0.60
2018-12-15T18:37:37.348Z,0.70
2018-12-15T18:40:07.050Z,0.70
2018-12-15T18:42:35.781Z,0.70
2018-12-15T18:45:06.689Z,0.50
2018-12-15T18:47:35.440Z,0.50
2018-12-15T18:50:04.952Z,0.40
2018-12-15T18:52:33.758Z,0.40
2018-12-15T18:55:02.495Z,0.50
2018-12-15T18:57:31.189Z,0.50
2018-12-15T18:59:59.950Z,0.50
2018-12-15T19:02:28.807Z,0.50
2018-12-15T19:04:57.582Z,0.50
2018-12-15T19:07:26.254Z,0.40
2018-12-15T19:09:55.007Z,0.40
2018-12-15T19:12:23.780Z,0.40
2018-12-15T19:14:52.533Z,0.50
2018-12-15T19:17:25.826Z,0.50
2018-12-15T19:19:54.577Z,0.40
2018-12-15T19:22:23.325Z,0.40
2018-12-15T19:24:52.327Z,0.50
2018-12-15T19:27:21.348Z,0.40
2018-12-15T19:29:50.056Z,0.40
2018-12-15T19:32:18.784Z,0.60
2018-12-15T19:34:52.439Z,0.60
2018-12-15T19:37:18.381Z,0.60
2018-12-15T19:39:47.085Z,0.40
2018-12-15T19:42:16.270Z,0.30
2018-12-15T19:44:45.025Z,0.40
2018-12-15T19:47:13.722Z,0.40
2018-12-15T19:49:42.419Z,0.50
2018-12-15T19:52:11.302Z,0.50
2018-12-15T19:54:40.107Z,0.50
2018-12-15T19:57:08.765Z,0.50
2018-12-15T19:59:37.566Z,0.50
2018-12-15T20:02:06.267Z,0.60
2018-12-15T20:04:35.344Z,0.60
2018-12-15T20:07:04.097Z,0.60
2018-12-15T20:09:32.845Z,0.50
2018-12-15T20:12:01.560Z,0.50
2018-12-15T20:14:30.225Z,0.40
2018-12-15T20:16:58.923Z,0.40
2018-12-15T20:19:27.689Z,0.50
2018-12-15T20:21:56.497Z,0.60
2018-12-15T20:24:25.254Z,0.60
2018-12-15T20:26:53.992Z,0.50
2018-12-15T20:29:22.706Z,0.60
2018-12-15T20:31:51.525Z,0.60
2018-12-15T20:34:20.607Z,0.60
2018-12-15T20:36:49.365Z,0.50
2018-12-15T20:39:17.995Z,0.60
2018-12-15T20:41:46.726Z,0.60
2018-12-15T20:44:15.474Z,0.60
2018-12-15T20:46:50.731Z,0.70
2018-12-15T20:49:19.341Z,0.60
2018-12-15T20:51:48.070Z,0.60
2018-12-15T20:54:19.702Z,0.60
2018-12-15T20:56:48.532Z,0.50
2018-12-15T20:59:17.368Z,0.40
2018-12-15T21:01:46.217Z,0.30
2018-12-15T21:04:14.943Z,0.30
2018-12-15T21:06:43.608Z,0.20
2018-12-15T21:09:12.424Z,0.10
2018-12-15T21:11:41.147Z,0.10
2018-12-15T21:14:09.979Z,0.10
2018-12-15T21:16:38.780Z,0.10
2018-12-15T21:19:07.479Z,0.10
2018-12-15T21:21:36.182Z,0.00
2018-12-15T21:24:04.987Z,-0.10
2018-12-15T21:26:33.728Z,-0.10
2018-12-15T21:29:02.477Z,-0.10
2018-12-15T21:31:31.312Z,-0.10
2018-12-15T21:34:00.026Z,-0.10
2018-12-15T21:36:28.862Z,0.00
2018-12-15T21:38:57.569Z,-0.10
2018-12-15T21:41:26.354Z,-0.20
2018-12-15T21:43:55.048Z,-0.30
2018-12-15T21:46:23.720Z,-0.30
2018-12-15T21:48:53.796Z,-0.30
2018-12-15T21:51:22.473Z,-0.20
2018-12-15T21:53:51.990Z,-0.20
2018-12-15T21:56:20.794Z,-0.20
2018-12-15T21:58:49.542Z,-0.20
2018-12-15T22:01:18.305Z,-0.40
2018-12-15T22:03:47.061Z,-0.50
2018-12-15T22:06:15.848Z,-0.40
2018-12-15T22:08:44.657Z,-0.50
2018-12-15T22:11:13.391Z,-0.50
2018-12-15T22:13:42.092Z,-0.50
2018-12-15T22:16:10.816Z,-0.50
2018-12-15T22:18:39.521Z,-0.40
2018-12-15T22:21:08.205Z,-0.40
2018-12-15T22:23:36.981Z,-0.40
2018-12-15T22:26:05.759Z,-0.50
2018-12-15T22:28:34.493Z,-0.60
2018-12-15T22:31:03.293Z,-0.50
2018-12-15T22:33:32.026Z,-0.50
2018-12-15T22:36:00.733Z,-0.60
2018-12-15T22:38:29.463Z,-0.60
2018-12-15T22:40:58.126Z,-0.60
2018-12-15T22:43:26.892Z,-0.60
2018-12-15T22:45:55.754Z,-0.70
2018-12-15T22:48:24.465Z,-0.70
2018-12-15T22:50:53.201Z,-0.50
2018-12-15T22:53:22.077Z,-0.50
2018-12-15T22:55:50.777Z,-0.50
2018-12-15T22:58:19.547Z,-0.60
2018-12-15T23:00:53.563Z,-0.60
2018-12-15T23:03:24.194Z,-0.50
2018-12-15T23:05:52.982Z,-0.40
2018-12-15T23:08:21.998Z,-0.50
2018-12-15T23:10:50.681Z,-0.50
2018-12-15T23:13:19.358Z,-0.50
2018-12-15T23:15:48.086Z,-0.50
2018-12-15T23:18:16.731Z,-0.50
2018-12-15T23:20:45.454Z,-0.60
2018-12-15T23:23:14.149Z,-0.60
2018-12-15T23:25:43.086Z,-0.60
2018-12-15T23:28:11.943Z,-0.50
2018-12-15T23:30:40.742Z,-0.50
2018-12-15T23:33:09.449Z,-0.60
2018-12-15T23:35:38.304Z,-0.60
2018-12-15T23:38:07.025Z,-0.50
2018-12-15T23:40:35.662Z,-0.50
2018-12-15T23:43:05.473Z,-0.50
2018-12-15T23:45:34.179Z,-0.50
2018-12-15T23:48:02.977Z,-0.60
2018-12-15T23:50:31.736Z,-0.50
2018-12-15T23:53:00.415Z,-0.50
2018-12-15T23:55:29.181Z,-0.60
2018-12-15T23:57:58.205Z,-0.50
